Time;durP1;ratioP1;P1;durP2;ratioP2;P2;SDS_P1;SDS_P2;PMS_P1;PMS_P2;Temp;Humidity;BMP_temperature;BMP_pressure;BME280_temperature;BME280_humidity;BME280_pressure;Samples;Min_cycle;Max_cycle;Signal;HPM_P1;HPM_P2
2023/01/11 00:00:06;;;;;;;;;;;19.60;56.40;;;;;;1548702;75;1133;-67
2023/01/11 00:02:07;;;;;;;;;;;19.60;56.50;;;;;;1545729;75;813;-68
2023/01/11 00:04:09;;;;;;;;;;;19.60;56.70;;;;;;1559621;75;1730;-68
2023/01/11 00:06:11;;;;;;;;;;;19.60;56.90;;;;;;1548541;75;741;-69
2023/01/11 00:08:13;;;;;;;;;;;19.60;56.90;;;;;;1550981;75;709;-69
2023/01/11 00:10:15;;;;;;;;;;;19.60;56.80;;;;;;1549273;75;1934;-70
2023/01/11 00:12:17;;;;;;;;;;;19.70;56.90;;;;;;1548620;75;698;-67
2023/01/11 00:14:19;;;;;;;;;;;19.80;57.80;;;;;;1541451;75;791;-69
2023/01/11 00:16:21;;;;;;;;;;;19.80;58.20;;;;;;1547212;75;1548;-70
2023/01/11 00:18:23;;;;;;;;;;;19.70;58.60;;;;;;1550195;75;812;-69
2023/01/11 00:20:25;;;;;;;;;;;19.70;58.60;;;;;;1552794;75;1112;-71
2023/01/11 00:22:26;;;;;;;;;;;19.80;58.50;;;;;;1548304;75;775;-68
2023/01/11 00:24:28;;;;;;;;;;;19.70;58.60;;;;;;1548773;75;742;-69
2023/01/11 00:26:30;;;;;;;;;;;19.80;58.50;;;;;;1549016;75;794;-69
2023/01/11 00:28:32;;;;;;;;;;;19.70;58.40;;;;;;1547293;75;797;-69
2023/01/11 00:30:34;;;;;;;;;;;19.70;58.40;;;;;;1545193;75;1960;-68
2023/01/11 00:32:36;;;;;;;;;;;19.70;58.30;;;;;;1548406;76;779;-65
2023/01/11 00:34:38;;;;;;;;;;;19.80;58.20;;;;;;1548802;75;822;-65
2023/01/11 00:36:40;;;;;;;;;;;19.80;58.00;;;;;;1550918;75;732;-68
2023/01/11 00:39:03;;;;;;;;;;;19.90;58.00;;;;;;1609010;72;1197;-62
2023/01/11 00:48:05;;;;;;;;;;;19.90;58.70;;;;;;1557155;75;1608;-61
2023/01/11 00:50:08;;;;;;;;;;;19.90;58.70;;;;;;1561652;74;1170;-61
2023/01/11 00:52:10;;;;;;;;;;;19.90;58.70;;;;;;1564421;75;750;-62
2023/01/11 00:54:12;;;;;;;;;;;19.90;58.80;;;;;;1557588;75;731;-62
2023/01/11 00:56:14;;;;;;;;;;;19.90;58.70;;;;;;1561929;75;754;-62
2023/01/11 00:59:34;;;;;;;;;;;20.00;58.70;;;;;;1606250;72;1480;-60
2023/01/11 01:01:36;;;;;;;;;;;20.00;58.60;;;;;;1565452;73;581;-60
2023/01/11 01:03:38;;;;;;;;;;;20.00;58.50;;;;;;1546349;75;792;-61
2023/01/11 01:07:10;;;;;;;;;;;19.90;58.50;;;;;;1623951;72;686;-61
2023/01/11 01:09:12;;;;;;;;;;;19.90;58.60;;;;;;1590143;73;1206;-61
2023/01/11 01:11:15;;;;;;;;;;;19.90;58.50;;;;;;1563237;74;790;-63
2023/01/11 01:15:36;;;;;;;;;;;20.00;58.30;;;;;;1560498;74;1696;-61
2023/01/11 01:17:38;;;;;;;;;;;19.90;58.30;;;;;;1560958;74;701;-63
2023/01/11 01:19:40;;;;;;;;;;;19.90;58.30;;;;;;1564557;74;1074;-62
2023/01/11 01:21:42;;;;;;;;;;;19.90;58.30;;;;;;1561343;74;804;-62
2023/01/11 01:23:43;;;;;;;;;;;19.90;58.40;;;;;;1570526;74;784;-63
2023/01/11 01:25:45;;;;;;;;;;;19.90;58.30;;;;;;1571004;74;1943;-63
2023/01/11 01:27:47;;;;;;;;;;;19.90;58.30;;;;;;1577808;74;1519;-64
2023/01/11 01:29:49;;;;;;;;;;;19.90;58.40;;;;;;1573015;74;1082;-63
2023/01/11 01:31:51;;;;;;;;;;;19.90;58.40;;;;;;1580205;74;814;-62
2023/01/11 01:33:53;;;;;;;;;;;19.90;58.30;;;;;;1561385;74;740;-63
2023/01/11 01:35:55;;;;;;;;;;;19.90;58.30;;;;;;1556967;74;808;-62
2023/01/11 01:37:57;;;;;;;;;;;19.90;58.30;;;;;;1574630;74;703;-62
2023/01/11 01:39:58;;;;;;;;;;;19.90;58.30;;;;;;1579286;74;1149;-62
2023/01/11 01:42:00;;;;;;;;;;;19.80;58.30;;;;;;1568726;74;1580;-62
2023/01/11 01:44:03;;;;;;;;;;;19.80;58.20;;;;;;1561737;74;733;-62
2023/01/11 01:46:05;;;;;;;;;;;19.90;58.30;;;;;;1557399;74;1939;-63
2023/01/11 01:48:07;;;;;;;;;;;19.80;58.10;;;;;;1564588;74;745;-61
2023/01/11 01:50:14;;;;;;;;;;;19.90;58.20;;;;;;1571690;74;1136;-61
2023/01/11 01:52:16;;;;;;;;;;;19.90;58.20;;;;;;1562412;74;705;-61
2023/01/11 01:54:19;;;;;;;;;;;19.80;58.10;;;;;;1563754;74;726;-61
2023/01/11 01:56:26;;;;;;;;;;;19.90;58.10;;;;;;1569953;74;1696;-61
2023/01/11 01:58:42;;;;;;;;;;;19.80;58.00;;;;;;1559568;74;1826;-61
2023/01/11 02:00:44;;;;;;;;;;;19.90;58.10;;;;;;1566117;74;1889;-61
2023/01/11 02:02:46;;;;;;;;;;;19.90;58.10;;;;;;1571705;74;751;-61
2023/01/11 02:04:48;;;;;;;;;;;19.90;58.10;;;;;;1567244;74;754;-61
2023/01/11 02:06:54;;;;;;;;;;;19.90;58.10;;;;;;1557883;74;1943;-61
2023/01/11 02:08:56;;;;;;;;;;;19.80;58.10;;;;;;1553630;75;1577;-63
2023/01/11 02:10:58;;;;;;;;;;;19.80;58.20;;;;;;1554232;75;755;-63
2023/01/11 02:13:01;;;;;;;;;;;19.90;58.20;;;;;;1562733;75;775;-61
2023/01/11 02:15:03;;;;;;;;;;;19.80;58.20;;;;;;1568380;75;702;-62
2023/01/11 02:17:05;;;;;;;;;;;19.80;58.10;;;;;;1550264;75;625;-62
2023/01/11 02:19:08;;;;;;;;;;;19.80;58.40;;;;;;1550084;75;1133;-62
2023/01/11 02:21:17;;;;;;;;;;;19.80;58.10;;;;;;1552044;75;793;-62
2023/01/11 02:23:27;;;;;;;;;;;19.80;58.10;;;;;;1548150;75;1510;-62
2023/01/11 02:25:36;;;;;;;;;;;19.80;58.30;;;;;;1556147;75;760;-60
2023/01/11 02:27:55;;;;;;;;;;;19.90;58.40;;;;;;1570724;75;726;-62
2023/01/11 02:30:12;;;;;;;;;;;19.80;58.20;;;;;;1560132;75;1181;-62
2023/01/11 02:32:16;;;;;;;;;;;19.80;58.20;;;;;;1554118;75;1514;-61
2023/01/11 02:34:36;;;;;;;;;;;19.80;58.40;;;;;;1551065;75;790;-61
2023/01/11 02:36:56;;;;;;;;;;;19.80;58.40;;;;;;1551293;75;776;-64
2023/01/11 02:39:09;;;;;;;;;;;19.80;58.20;;;;;;1565783;75;1147;-61
2023/01/11 02:41:21;;;;;;;;;;;19.90;58.30;;;;;;1557395;75;739;-60
2023/01/11 02:45:52;;;;;;;;;;;19.80;58.30;;;;;;1554558;75;1923;-60
2023/01/11 02:47:58;;;;;;;;;;;19.80;58.20;;;;;;1542991;75;760;-60
2023/01/11 02:50:02;;;;;;;;;;;19.80;58.20;;;;;;1559140;75;1129;-61
2023/01/11 02:52:05;;;;;;;;;;;19.90;58.30;;;;;;1546766;75;1708;-61
2023/01/11 02:54:08;;;;;;;;;;;19.90;58.20;;;;;;1558049;75;1893;-62
2023/01/11 02:56:11;;;;;;;;;;;19.80;58.10;;;;;;1551646;75;791;-61
2023/01/11 02:58:13;;;;;;;;;;;19.90;58.30;;;;;;1549274;75;1722;-61
2023/01/11 03:00:16;;;;;;;;;;;19.90;58.00;;;;;;1556233;74;1117;-61
2023/01/11 03:02:18;;;;;;;;;;;19.90;58.20;;;;;;1557008;75;721;-60
2023/01/11 03:04:28;;;;;;;;;;;19.90;58.20;;;;;;1552878;75;712;-61
2023/01/11 03:06:33;;;;;;;;;;;19.80;57.90;;;;;;1549015;75;1927;-60
2023/01/11 03:08:46;;;;;;;;;;;19.90;58.40;;;;;;1562143;75;1243;-60
2023/01/11 03:10:50;;;;;;;;;;;19.90;58.00;;;;;;1565626;75;743;-61
2023/01/11 03:12:56;;;;;;;;;;;19.90;57.90;;;;;;1570678;75;813;-61
2023/01/11 03:15:05;;;;;;;;;;;19.90;58.30;;;;;;1569198;75;713;-61
2023/01/11 03:17:09;;;;;;;;;;;19.90;58.40;;;;;;1561603;75;2092;-64
2023/01/11 03:19:29;;;;;;;;;;;19.90;58.20;;;;;;1569735;75;1927;-64
2023/01/11 03:21:49;;;;;;;;;;;20.00;58.00;;;;;;1564082;75;744;-64
2023/01/11 03:24:10;;;;;;;;;;;20.00;58.00;;;;;;1579220;75;746;-63
2023/01/11 03:26:26;;;;;;;;;;;20.10;57.90;;;;;;1572803;75;1931;-63
2023/01/11 03:28:30;;;;;;;;;;;20.00;57.10;;;;;;1558970;75;1870;-63
2023/01/11 03:30:35;;;;;;;;;;;20.10;56.90;;;;;;1558257;75;1879;-63
2023/01/11 03:32:41;;;;;;;;;;;20.20;56.60;;;;;;1561013;75;745;-63
2023/01/11 03:34:57;;;;;;;;;;;20.20;56.40;;;;;;1564018;75;1582;-63
2023/01/11 03:37:00;;;;;;;;;;;20.20;56.20;;;;;;1560199;75;1938;-63
2023/01/11 03:39:16;;;;;;;;;;;20.30;56.20;;;;;;1552445;75;1910;-63
2023/01/11 03:41:22;;;;;;;;;;;20.20;56.00;;;;;;1564395;75;753;-63
2023/01/11 03:43:24;;;;;;;;;;;20.30;56.00;;;;;;1566003;74;711;-62
2023/01/11 03:45:26;;;;;;;;;;;20.30;56.00;;;;;;1569219;75;717;-62
2023/01/11 03:47:28;;;;;;;;;;;20.30;55.80;;;;;;1562679;75;1928;-62
2023/01/11 03:49:35;;;;;;;;;;;20.30;55.70;;;;;;1557570;75;1129;-63
2023/01/11 03:51:41;;;;;;;;;;;20.30;55.60;;;;;;1562837;75;729;-62
2023/01/11 03:53:44;;;;;;;;;;;20.30;55.60;;;;;;1568378;74;951;-62
2023/01/11 03:55:47;;;;;;;;;;;20.30;55.50;;;;;;1570193;74;801;-62
2023/01/11 03:57:50;;;;;;;;;;;20.40;55.40;;;;;;1561536;75;760;-62
2023/01/11 03:59:52;;;;;;;;;;;20.40;55.30;;;;;;1572768;74;1144;-63
2023/01/11 04:01:54;;;;;;;;;;;20.40;55.20;;;;;;1564221;74;1514;-62
2023/01/11 04:03:56;;;;;;;;;;;20.40;55.20;;;;;;1557485;75;745;-62
2023/01/11 04:05:59;;;;;;;;;;;20.40;55.10;;;;;;1560544;75;671;-63
2023/01/11 04:08:00;;;;;;;;;;;20.40;55.10;;;;;;1564654;74;1924;-62
2023/01/11 04:10:03;;;;;;;;;;;20.40;55.10;;;;;;1574496;75;1168;-62
2023/01/11 04:12:05;;;;;;;;;;;20.40;55.10;;;;;;1538867;76;781;-62
2023/01/11 04:14:07;;;;;;;;;;;20.40;55.10;;;;;;1536083;76;708;-63
2023/01/11 04:16:09;;;;;;;;;;;20.40;55.30;;;;;;1536868;76;1542;-62
2023/01/11 04:18:10;;;;;;;;;;;20.40;55.30;;;;;;1529057;76;766;-63
2023/01/11 04:20:12;;;;;;;;;;;20.40;55.20;;;;;;1531396;76;1115;-63
2023/01/11 04:22:14;;;;;;;;;;;20.40;55.40;;;;;;1544188;76;712;-63
2023/01/11 04:24:17;;;;;;;;;;;20.40;55.20;;;;;;1535924;76;725;-63
2023/01/11 04:26:19;;;;;;;;;;;20.40;55.20;;;;;;1539075;76;1912;-63
2023/01/11 04:28:21;;;;;;;;;;;20.50;55.40;;;;;;1530947;76;739;-62
2023/01/11 04:30:23;;;;;;;;;;;20.40;55.30;;;;;;1543672;76;1590;-63
2023/01/11 04:32:24;;;;;;;;;;;20.50;55.40;;;;;;1531147;76;784;-63
2023/01/11 04:34:26;;;;;;;;;;;20.40;55.30;;;;;;1531830;76;598;-62
2023/01/11 04:36:30;;;;;;;;;;;20.50;55.40;;;;;;1533094;76;747;-62
2023/01/11 04:38:32;;;;;;;;;;;20.50;55.50;;;;;;1537733;76;710;-62
2023/01/11 04:40:34;;;;;;;;;;;20.50;55.50;;;;;;1535472;74;3094;-57
2023/01/11 04:42:36;;;;;;;;;;;20.40;55.40;;;;;;1558420;74;987;-58
2023/01/11 04:44:38;;;;;;;;;;;20.40;55.40;;;;;;1554097;75;1733;-58
2023/01/11 04:46:40;;;;;;;;;;;20.40;55.60;;;;;;1559780;74;1929;-58
2023/01/11 04:48:41;;;;;;;;;;;20.40;55.50;;;;;;1560327;75;1212;-57
2023/01/11 04:50:43;;;;;;;;;;;20.40;55.50;;;;;;1561505;75;784;-58
2023/01/11 04:52:45;;;;;;;;;;;20.40;55.40;;;;;;1563147;75;722;-57
2023/01/11 04:54:47;;;;;;;;;;;20.40;55.40;;;;;;1549773;76;709;-57
2023/01/11 04:56:49;;;;;;;;;;;20.40;55.40;;;;;;1530440;76;744;-58
2023/01/11 04:58:51;;;;;;;;;;;20.40;55.50;;;;;;1559815;75;1846;-57
2023/01/11 05:00:53;;;;;;;;;;;20.40;55.50;;;;;;1556600;75;756;-57
2023/01/11 05:02:56;;;;;;;;;;;20.50;55.50;;;;;;1560108;75;574;-57
2023/01/11 05:04:58;;;;;;;;;;;20.50;55.30;;;;;;1536640;76;1815;-57
2023/01/11 05:07:00;;;;;;;;;;;20.40;55.40;;;;;;1534777;76;1930;-57
2023/01/11 05:09:02;;;;;;;;;;;20.40;55.40;;;;;;1556107;75;1136;-58
2023/01/11 05:11:05;;;;;;;;;;;20.40;55.40;;;;;;1554954;75;749;-58
2023/01/11 05:13:07;;;;;;;;;;;20.40;55.40;;;;;;1538922;76;1444;-58
2023/01/11 05:15:09;;;;;;;;;;;20.40;55.40;;;;;;1534768;76;720;-58
2023/01/11 05:17:14;;;;;;;;;;;20.40;55.30;;;;;;1529063;76;730;-57
2023/01/11 05:19:15;;;;;;;;;;;20.50;55.60;;;;;;1546452;76;1147;-59
2023/01/11 05:21:18;;;;;;;;;;;20.40;55.50;;;;;;1552426;76;718;-58
2023/01/11 05:23:20;;;;;;;;;;;20.40;55.60;;;;;;1554429;76;704;-58
2023/01/11 05:25:22;;;;;;;;;;;20.40;55.90;;;;;;1546475;76;785;-58
2023/01/11 05:27:24;;;;;;;;;;;20.30;56.40;;;;;;1548712;76;1944;-59
2023/01/11 05:29:27;;;;;;;;;;;20.40;56.70;;;;;;1548071;76;1190;-57
2023/01/11 05:31:29;;;;;;;;;;;20.30;56.50;;;;;;1550082;76;782;-58
2023/01/11 05:33:31;;;;;;;;;;;20.30;56.80;;;;;;1517821;78;683;-58
2023/01/11 05:35:32;;;;;;;;;;;20.20;57.10;;;;;;1555550;76;868;-58
2023/01/11 05:37:34;;;;;;;;;;;20.20;56.50;;;;;;1553328;76;772;-59
2023/01/11 05:39:36;;;;;;;;;;;20.40;56.40;;;;;;1551012;76;1134;-58
2023/01/11 05:41:38;;;;;;;;;;;20.30;56.30;;;;;;1546723;76;1570;-58
2023/01/11 05:46:00;;;;;;;;;;;20.40;56.00;;;;;;1542536;76;679;-58
2023/01/11 05:48:02;;;;;;;;;;;20.40;56.80;;;;;;1538634;76;1951;-59
2023/01/11 05:50:04;;;;;;;;;;;20.30;57.90;;;;;;1525206;76;1141;-59
2023/01/11 05:52:06;;;;;;;;;;;20.30;57.40;;;;;;1540301;76;691;-59
2023/01/11 05:54:10;;;;;;;;;;;20.20;57.00;;;;;;1539210;76;1461;-59
2023/01/11 05:56:11;;;;;;;;;;;20.30;57.10;;;;;;1542923;76;785;-60
2023/01/11 05:58:13;;;;;;;;;;;20.30;57.20;;;;;;1541314;76;777;-59
2023/01/11 06:00:16;;;;;;;;;;;20.20;57.20;;;;;;1529119;76;1070;-59
2023/01/11 06:02:17;;;;;;;;;;;20.30;57.20;;;;;;1542659;76;626;-58
2023/01/11 06:04:19;;;;;;;;;;;20.20;57.90;;;;;;1545620;76;669;-58
2023/01/11 06:06:21;;;;;;;;;;;20.20;57.20;;;;;;1541342;76;720;-59
2023/01/11 06:08:23;;;;;;;;;;;20.20;57.10;;;;;;1539304;76;1933;-59
2023/01/11 06:10:25;;;;;;;;;;;20.20;57.30;;;;;;1536998;76;1103;-59
2023/01/11 06:12:27;;;;;;;;;;;20.30;58.20;;;;;;1540028;76;731;-60
2023/01/11 06:14:29;;;;;;;;;;;20.30;58.20;;;;;;1545481;76;947;-59
2023/01/11 06:16:31;;;;;;;;;;;20.20;58.10;;;;;;1539608;76;698;-59
2023/01/11 06:18:33;;;;;;;;;;;20.20;58.10;;;;;;1533957;76;583;-59
2023/01/11 06:20:35;;;;;;;;;;;20.10;58.20;;;;;;1536488;76;1167;-59
2023/01/11 06:22:37;;;;;;;;;;;20.20;58.10;;;;;;1544437;76;1460;-59
2023/01/11 06:24:39;;;;;;;;;;;20.10;58.00;;;;;;1535055;76;740;-59
2023/01/11 06:26:41;;;;;;;;;;;20.10;57.80;;;;;;1535089;76;678;-59
2023/01/11 06:28:43;;;;;;;;;;;20.00;57.70;;;;;;1542331;76;1939;-59
2023/01/11 06:30:46;;;;;;;;;;;20.00;57.10;;;;;;1537919;76;732;-59
2023/01/11 06:32:48;;;;;;;;;;;20.00;56.90;;;;;;1544822;76;1768;-59
2023/01/11 06:34:50;;;;;;;;;;;20.00;57.80;;;;;;1533906;76;743;-59
2023/01/11 06:36:52;;;;;;;;;;;20.10;57.10;;;;;;1537989;76;1584;-59
2023/01/11 06:38:54;;;;;;;;;;;20.10;57.00;;;;;;1533091;76;1204;-60
2023/01/11 06:40:56;;;;;;;;;;;20.10;58.60;;;;;;1538928;76;702;-60
2023/01/11 06:42:58;;;;;;;;;;;20.10;58.30;;;;;;1537677;76;751;-59
2023/01/11 06:45:00;;;;;;;;;;;20.20;58.10;;;;;;1538531;76;687;-59
2023/01/11 06:47:02;;;;;;;;;;;20.20;57.90;;;;;;1546635;76;810;-59
2023/01/11 06:49:04;;;;;;;;;;;20.20;57.80;;;;;;1542451;76;1940;-60
2023/01/11 06:51:06;;;;;;;;;;;20.20;57.80;;;;;;1528745;76;1323;-60
2023/01/11 06:53:07;;;;;;;;;;;20.30;57.40;;;;;;1539565;76;627;-59
2023/01/11 06:55:09;;;;;;;;;;;20.20;57.10;;;;;;1542906;76;668;-59
2023/01/11 06:57:11;;;;;;;;;;;20.20;57.10;;;;;;1541453;76;716;-59
2023/01/11 06:59:14;;;;;;;;;;;20.30;57.10;;;;;;1536025;76;1161;-60
2023/01/11 07:01:16;;;;;;;;;;;20.20;56.80;;;;;;1537564;76;802;-59
2023/01/11 07:03:19;;;;;;;;;;;20.20;56.80;;;;;;1536269;76;699;-59
2023/01/11 07:05:21;;;;;;;;;;;20.20;56.80;;;;;;1534442;76;1472;-60
2023/01/11 07:07:23;;;;;;;;;;;20.20;56.80;;;;;;1529494;76;1931;-60
2023/01/11 07:09:24;;;;;;;;;;;20.20;56.80;;;;;;1537262;76;1131;-59
2023/01/11 07:11:26;;;;;;;;;;;20.20;56.80;;;;;;1541873;76;791;-60
2023/01/11 07:13:28;;;;;;;;;;;20.20;56.40;;;;;;1542836;76;1115;-59
2023/01/11 07:15:30;;;;;;;;;;;20.20;55.70;;;;;;1544790;76;715;-59
2023/01/11 07:17:32;;;;;;;;;;;20.20;54.60;;;;;;1545759;76;703;-61
2023/01/11 07:19:34;;;;;;;;;;;20.30;54.50;;;;;;1541297;76;1516;-59
2023/01/11 07:21:36;;;;;;;;;;;20.30;54.60;;;;;;1542791;76;664;-60
2023/01/11 07:23:37;;;;;;;;;;;20.40;54.50;;;;;;1546348;76;729;-59
2023/01/11 07:25:40;;;;;;;;;;;20.20;54.40;;;;;;1544628;76;1124;-59
2023/01/11 07:27:42;;;;;;;;;;;20.20;54.70;;;;;;1544357;76;1923;-59
2023/01/11 07:29:43;;;;;;;;;;;20.20;55.00;;;;;;1544647;76;1129;-60
2023/01/11 07:31:46;;;;;;;;;;;20.20;55.10;;;;;;1552591;76;727;-61
2023/01/11 07:33:48;;;;;;;;;;;20.10;55.30;;;;;;1528300;76;1479;-59
2023/01/11 07:35:49;;;;;;;;;;;20.10;55.30;;;;;;1543447;76;736;-60
2023/01/11 07:37:51;;;;;;;;;;;20.10;54.60;;;;;;1547056;76;718;-59
2023/01/11 07:39:53;;;;;;;;;;;20.20;53.10;;;;;;1541408;76;1139;-60
2023/01/11 07:44:15;;;;;;;;;;;20.30;51.40;;;;;;1537175;76;739;-59
2023/01/11 07:46:17;;;;;;;;;;;20.20;50.70;;;;;;1543849;76;721;-58
2023/01/11 07:48:20;;;;;;;;;;;20.30;50.70;;;;;;1540111;76;1943;-58
2023/01/11 07:50:21;;;;;;;;;;;20.20;50.20;;;;;;1536845;76;1130;-58
2023/01/11 07:52:23;;;;;;;;;;;20.20;50.40;;;;;;1543517;76;699;-58
2023/01/11 07:54:25;;;;;;;;;;;20.10;50.20;;;;;;1533730;76;734;-59
2023/01/11 07:56:28;;;;;;;;;;;20.10;50.00;;;;;;1540843;76;704;-58
2023/01/11 07:58:31;;;;;;;;;;;20.00;50.20;;;;;;1532648;76;731;-58
2023/01/11 08:00:33;;;;;;;;;;;20.00;49.90;;;;;;1545219;76;1425;-58
2023/01/11 08:02:35;;;;;;;;;;;20.10;49.90;;;;;;1539833;76;668;-59
2023/01/11 08:04:36;;;;;;;;;;;20.10;49.80;;;;;;1545293;76;709;-58
2023/01/11 08:06:39;;;;;;;;;;;20.00;51.00;;;;;;1534108;76;689;-58
2023/01/11 08:08:41;;;;;;;;;;;20.00;51.80;;;;;;1542943;76;1943;-58
2023/01/11 08:10:42;;;;;;;;;;;19.90;52.00;;;;;;1539695;76;813;-58
2023/01/11 08:15:05;;;;;;;;;;;19.90;53.30;;;;;;1541511;76;1639;-58
2023/01/11 08:17:07;;;;;;;;;;;19.90;53.00;;;;;;1535848;76;770;-59
2023/01/11 08:19:09;;;;;;;;;;;19.90;53.10;;;;;;1539136;76;1162;-58
2023/01/11 08:21:11;;;;;;;;;;;19.90;53.40;;;;;;1536513;76;772;-59
2023/01/11 08:23:13;;;;;;;;;;;20.00;53.40;;;;;;1531037;76;698;-58
2023/01/11 08:25:15;;;;;;;;;;;19.90;53.70;;;;;;1537333;76;713;-58
2023/01/11 08:27:17;;;;;;;;;;;19.90;53.90;;;;;;1543142;76;729;-60
2023/01/11 08:29:19;;;;;;;;;;;20.00;54.10;;;;;;1539139;76;1942;-58
2023/01/11 08:31:21;;;;;;;;;;;20.00;54.20;;;;;;1540574;76;706;-59
2023/01/11 08:33:23;;;;;;;;;;;19.90;54.30;;;;;;1536506;76;628;-58
2023/01/11 08:35:25;;;;;;;;;;;20.00;54.50;;;;;;1540284;76;824;-58
2023/01/11 08:37:27;;;;;;;;;;;20.00;54.40;;;;;;1540243;76;1026;-57
2023/01/11 08:39:29;;;;;;;;;;;20.00;54.50;;;;;;1530917;76;1157;-58
2023/01/11 08:41:31;;;;;;;;;;;20.00;54.50;;;;;;1544942;76;739;-58
2023/01/11 08:43:33;;;;;;;;;;;20.00;54.60;;;;;;1539716;76;1373;-59
2023/01/11 08:45:35;;;;;;;;;;;20.10;54.70;;;;;;1544616;76;716;-58
2023/01/11 08:47:37;;;;;;;;;;;20.10;54.70;;;;;;1538631;76;712;-58
2023/01/11 08:49:41;;;;;;;;;;;20.20;54.80;;;;;;1530148;76;1934;-58
2023/01/11 08:51:42;;;;;;;;;;;20.10;54.80;;;;;;1540872;76;1486;-57
2023/01/11 08:53:44;;;;;;;;;;;20.10;54.70;;;;;;1542093;76;738;-58
2023/01/11 08:55:49;;;;;;;;;;;20.20;54.70;;;;;;1549011;76;718;-58
2023/01/11 08:57:51;;;;;;;;;;;20.20;54.80;;;;;;1544630;74;1438;-58
2023/01/11 08:59:53;;;;;;;;;;;20.20;54.70;;;;;;1544142;76;1118;-57
2023/01/11 09:01:55;;;;;;;;;;;20.20;54.90;;;;;;1544499;76;730;-58
2023/01/11 09:03:57;;;;;;;;;;;20.20;54.70;;;;;;1546733;76;727;-58
2023/01/11 09:05:59;;;;;;;;;;;20.30;55.00;;;;;;1538356;76;640;-59
2023/01/11 09:08:01;;;;;;;;;;;20.20;54.90;;;;;;1534108;76;1947;-60
2023/01/11 09:10:03;;;;;;;;;;;20.20;54.80;;;;;;1539477;76;1113;-58
2023/01/11 09:12:05;;;;;;;;;;;20.20;55.00;;;;;;1545390;76;1442;-58
2023/01/11 09:14:07;;;;;;;;;;;20.20;55.10;;;;;;1543390;76;822;-59
2023/01/11 09:16:09;;;;;;;;;;;20.20;55.00;;;;;;1537860;76;716;-58
2023/01/11 09:18:10;;;;;;;;;;;20.30;55.20;;;;;;1538438;76;743;-58
2023/01/11 09:20:12;;;;;;;;;;;20.20;55.00;;;;;;1534171;76;1171;-58
2023/01/11 09:22:14;;;;;;;;;;;20.20;55.10;;;;;;1543114;76;696;-58
2023/01/11 09:24:16;;;;;;;;;;;20.20;55.00;;;;;;1542165;76;777;-58
2023/01/11 09:26:18;;;;;;;;;;;20.30;55.10;;;;;;1542600;76;1676;-59
2023/01/11 09:28:20;;;;;;;;;;;20.30;55.20;;;;;;1541448;76;1935;-58
2023/01/11 09:30:22;;;;;;;;;;;20.30;55.20;;;;;;1543286;76;1138;-57
2023/01/11 09:32:24;;;;;;;;;;;20.40;55.20;;;;;;1546797;76;691;-58
2023/01/11 09:34:26;;;;;;;;;;;20.40;55.20;;;;;;1536262;76;719;-59
2023/01/11 09:36:30;;;;;;;;;;;20.40;55.10;;;;;;1540211;76;714;-59
2023/01/11 09:38:32;;;;;;;;;;;20.50;55.10;;;;;;1526389;76;1436;-57
2023/01/11 09:40:40;;;;;;;;;;;20.50;55.10;;;;;;1540410;76;1455;-57
2023/01/11 09:42:43;;;;;;;;;;;20.50;55.10;;;;;;1539179;76;1693;-59
2023/01/11 09:44:51;;;;;;;;;;;20.50;55.10;;;;;;1533555;76;802;-58
2023/01/11 09:46:55;;;;;;;;;;;20.50;55.10;;;;;;1536300;76;694;-58
2023/01/11 09:48:58;;;;;;;;;;;20.60;55.10;;;;;;1537605;76;1907;-58
2023/01/11 09:51:01;;;;;;;;;;;20.60;55.10;;;;;;1536378;76;733;-59
2023/01/11 09:53:06;;;;;;;;;;;20.60;55.10;;;;;;1539138;76;1341;-58
2023/01/11 09:55:21;;;;;;;;;;;20.60;55.00;;;;;;1540545;76;948;-58
2023/01/11 09:57:29;;;;;;;;;;;20.60;55.00;;;;;;1536046;76;1577;-58
2023/01/11 09:59:33;;;;;;;;;;;20.60;55.00;;;;;;1532716;76;1163;-59
2023/01/11 10:01:46;;;;;;;;;;;20.60;54.90;;;;;;1532495;76;1894;-59
2023/01/11 10:04:02;;;;;;;;;;;20.60;54.90;;;;;;1535859;76;2070;-57
2023/01/11 10:06:21;;;;;;;;;;;20.70;55.10;;;;;;1530005;76;1631;-57
2023/01/11 10:08:28;;;;;;;;;;;20.60;55.00;;;;;;1539839;76;1929;-58
2023/01/11 10:10:42;;;;;;;;;;;20.60;55.00;;;;;;1535842;76;1690;-59
2023/01/11 10:12:59;;;;;;;;;;;20.60;55.10;;;;;;1538572;76;1463;-58
2023/01/11 10:15:04;;;;;;;;;;;20.60;55.10;;;;;;1534237;76;1428;-57
2023/01/11 10:17:23;;;;;;;;;;;20.60;55.00;;;;;;1539953;75;1100;-59
2023/01/11 10:19:29;;;;;;;;;;;20.60;55.00;;;;;;1540707;76;1150;-59
2023/01/11 10:21:32;;;;;;;;;;;20.60;55.00;;;;;;1529429;76;1728;-57
2023/01/11 10:23:39;;;;;;;;;;;20.60;55.00;;;;;;1533635;76;744;-57
2023/01/11 10:25:49;;;;;;;;;;;20.70;55.10;;;;;;1535719;76;1665;-58
2023/01/11 10:27:52;;;;;;;;;;;20.60;55.10;;;;;;1527506;76;1605;-59
2023/01/11 10:30:09;;;;;;;;;;;20.60;55.20;;;;;;1521091;76;1941;-56
2023/01/11 10:32:12;;;;;;;;;;;20.50;55.50;;;;;;1542653;76;1515;-57
2023/01/11 10:34:35;;;;;;;;;;;20.50;55.50;;;;;;1537747;76;1656;-58
2023/01/11 10:36:38;;;;;;;;;;;20.60;55.20;;;;;;1521732;76;1620;-57
2023/01/11 10:38:42;;;;;;;;;;;20.60;55.20;;;;;;1539113;76;1704;-57
2023/01/11 10:41:11;;;;;;;;;;;20.60;55.20;;;;;;1543587;72;221464;-66
2023/01/11 10:43:15;;;;;;;;;;;20.60;55.20;;;;;;1565676;74;2325;-65
2023/01/11 10:45:31;;;;;;;;;;;20.70;55.20;;;;;;1551629;74;1652;-68
2023/01/11 10:47:36;;;;;;;;;;;20.70;55.20;;;;;;1552149;74;2191;-67
2023/01/11 10:49:39;;;;;;;;;;;20.60;55.10;;;;;;1551610;75;1920;-66
2023/01/11 10:51:42;;;;;;;;;;;20.60;55.10;;;;;;1549891;75;1188;-68
2023/01/11 10:53:49;;;;;;;;;;;20.60;55.10;;;;;;1549582;76;662;-68
2023/01/11 10:55:52;;;;;;;;;;;20.70;55.20;;;;;;1559774;74;2120;-68
2023/01/11 10:58:02;;;;;;;;;;;20.70;55.20;;;;;;1556489;76;888;-67
2023/01/11 11:00:06;;;;;;;;;;;20.60;55.20;;;;;;1562714;76;800;-67
2023/01/11 11:02:09;;;;;;;;;;;20.60;55.20;;;;;;1543589;76;1133;-67
2023/01/11 11:04:30;;;;;;;;;;;20.60;55.20;;;;;;1559565;76;1441;-67
2023/01/11 11:06:48;;;;;;;;;;;20.50;55.40;;;;;;1561213;76;772;-68
2023/01/11 11:08:54;;;;;;;;;;;20.50;55.40;;;;;;1551049;76;1923;-67
2023/01/11 11:11:04;;;;;;;;;;;20.50;55.50;;;;;;1546860;76;1130;-67
2023/01/11 11:13:10;;;;;;;;;;;20.50;55.50;;;;;;1551328;76;703;-67
2023/01/11 11:15:16;;;;;;;;;;;20.40;55.50;;;;;;1553444;76;1916;-68
2023/01/11 11:17:25;;;;;;;;;;;20.50;55.50;;;;;;1552494;76;1527;-67
2023/01/11 11:19:29;;;;;;;;;;;20.50;55.50;;;;;;1538000;76;732;-67
2023/01/11 11:21:35;;;;;;;;;;;20.50;55.60;;;;;;1530660;76;1129;-68
2023/01/11 11:23:37;;;;;;;;;;;20.50;55.70;;;;;;1540249;76;769;-68
2023/01/11 11:25:39;;;;;;;;;;;20.50;55.70;;;;;;1550982;74;801;-69
2023/01/11 11:27:42;;;;;;;;;;;20.50;55.70;;;;;;1564114;74;750;-67
2023/01/11 11:29:45;;;;;;;;;;;20.40;55.70;;;;;;1552526;76;1900;-68
2023/01/11 11:31:47;;;;;;;;;;;20.40;55.60;;;;;;1550012;75;2074;-68
2023/01/11 11:33:49;;;;;;;;;;;20.50;55.70;;;;;;1551023;76;877;-67
2023/01/11 11:35:55;;;;;;;;;;;20.40;55.60;;;;;;1555219;76;762;-67
2023/01/11 11:37:57;;;;;;;;;;;20.40;55.70;;;;;;1556631;76;787;-67
2023/01/11 11:39:59;;;;;;;;;;;20.40;55.80;;;;;;1561485;76;714;-67
2023/01/11 11:42:05;;;;;;;;;;;20.50;55.80;;;;;;1555943;76;1165;-67
2023/01/11 11:44:09;;;;;;;;;;;20.40;55.80;;;;;;1543846;75;1902;-67
2023/01/11 11:46:19;;;;;;;;;;;20.40;55.80;;;;;;1542406;75;1511;-68
2023/01/11 11:48:19;;;;;;;;;;;20.40;55.70;;;;;;1545579;75;1201;-69
2023/01/11 11:50:22;;;;;;;;;;;20.40;55.70;;;;;;1560017;75;1926;-67
2023/01/11 11:52:24;;;;;;;;;;;20.40;55.70;;;;;;1556061;76;1116;-65
2023/01/11 11:54:27;;;;;;;;;;;20.40;55.70;;;;;;1559993;75;773;-68
2023/01/11 11:56:36;;;;;;;;;;;20.40;55.70;;;;;;1563331;76;708;-69
2023/01/11 11:58:38;;;;;;;;;;;20.40;55.70;;;;;;1549023;75;726;-67
2023/01/11 12:00:47;;;;;;;;;;;20.40;55.70;;;;;;1553247;75;1609;-69
2023/01/11 12:02:49;;;;;;;;;;;20.40;55.70;;;;;;1553992;75;656;-67
2023/01/11 12:04:51;;;;;;;;;;;20.40;55.80;;;;;;1568521;75;797;-67
2023/01/11 12:07:14;;;;;;;;;;;20.30;55.80;;;;;;1559987;75;817;-66
2023/01/11 12:09:20;;;;;;;;;;;20.40;55.80;;;;;;1550859;74;1916;-67
2023/01/11 12:11:28;;;;;;;;;;;20.40;55.80;;;;;;1565554;74;1761;-67
2023/01/11 12:13:31;;;;;;;;;;;20.40;55.70;;;;;;1563242;75;1635;-67
2023/01/11 12:15:33;;;;;;;;;;;20.40;55.70;;;;;;1551119;76;788;-67
2023/01/11 12:17:35;;;;;;;;;;;20.40;55.70;;;;;;1549998;75;709;-67
2023/01/11 12:19:38;;;;;;;;;;;20.50;55.70;;;;;;1546229;76;845;-67
2023/01/11 12:21:40;;;;;;;;;;;20.40;55.60;;;;;;1557619;75;1959;-67
2023/01/11 12:23:42;;;;;;;;;;;20.50;55.60;;;;;;1559297;75;687;-65
2023/01/11 12:25:45;;;;;;;;;;;20.50;55.50;;;;;;1554475;76;796;-67
2023/01/11 12:27:58;;;;;;;;;;;20.40;55.50;;;;;;1556745;76;1309;-67
2023/01/11 12:30:10;;;;;;;;;;;20.40;55.50;;;;;;1555848;75;1927;-68
2023/01/11 12:32:20;;;;;;;;;;;20.50;55.60;;;;;;1562087;74;1892;-67
2023/01/11 12:34:42;;;;;;;;;;;20.50;55.50;;;;;;1559791;76;2139;-67
2023/01/11 12:36:54;;;;;;;;;;;20.50;55.50;;;;;;1557076;76;1597;-67
2023/01/11 12:39:15;;;;;;;;;;;20.40;55.50;;;;;;1560026;75;738;-68